Time;durP1;ratioP1;P1;durP2;ratioP2;P2;SDS_P1;SDS_P2;PMS_P1;PMS_P2;Temp;Humidity;BMP_temperature;BMP_pressure;BME280_temperature;BME280_humidity;BME280_pressure;Samples;Min_cycle;Max_cycle;Signal;HPM_P1;HPM_P2
2022/06/18 00:02:12;;;;;;;3.58;2.40;;;19.50;54.70;;;;;;5035896;28;20029;-80
2022/06/18 00:04:38;;;;;;;4.95;2.45;;;19.60;54.50;;;;;;5035942;28;20025;-80
2022/06/18 00:07:06;;;;;;;3.40;2.60;;;19.60;54.10;;;;;;5019601;28;20088;-79
2022/06/18 00:09:41;;;;;;;5.00;2.70;;;19.60;53.80;;;;;;5054397;28;20028;-80
2022/06/18 00:15:25;;;;;;;4.85;2.90;;;19.80;54.50;;;;;;5054285;28;20036;-75
2022/06/18 00:17:53;;;;;;;8.30;2.72;;;20.10;55.00;;;;;;5036503;28;20025;-80
2022/06/18 00:20:21;;;;;;;10.63;3.83;;;20.10;52.90;;;;;;5036041;28;20503;-81
2022/06/18 00:22:51;;;;;;;13.50;4.20;;;20.30;53.20;;;;;;5053962;28;20032;-82
2022/06/18 00:25:36;;;;;;;6.38;3.08;;;20.40;51.80;;;;;;5036094;28;20079;-80
2022/06/18 00:28:07;;;;;;;3.58;2.55;;;20.50;51.50;;;;;;5035370;28;20128;-90
2022/06/18 00:30:32;;;;;;;6.95;2.10;;;20.50;50.50;;;;;;5036058;28;20025;-84
2022/06/18 00:32:58;;;;;;;3.10;2.10;;;20.50;49.60;;;;;;5036435;28;20033;-84
2022/06/18 00:35:24;;;;;;;6.15;2.30;;;20.20;49.80;;;;;;5036163;28;20025;-84
2022/06/18 00:37:56;;;;;;;5.00;2.25;;;20.20;50.00;;;;;;5036168;28;20121;-83
2022/06/18 00:40:34;;;;;;;2.85;2.30;;;20.10;50.40;;;;;;5036214;28;20040;-83
2022/06/18 00:43:27;;;;;;;4.85;2.35;;;20.00;50.50;;;;;;5037999;28;20112;-82
2022/06/18 00:45:58;;;;;;;2.80;1.98;;;19.90;50.90;;;;;;5023867;28;20421;-81
2022/06/18 00:48:39;;;;;;;4.18;2.20;;;19.90;51.20;;;;;;5053656;28;20052;-82
2022/06/18 00:51:14;;;;;;;2.42;2.22;;;19.70;51.60;;;;;;5036260;28;20400;-82
2022/06/18 00:53:42;;;;;;;;;;;19.60;51.90;;;;;;5036156;28;20111;-82
2022/06/18 00:56:40;;;;;;;2.60;2.00;;;19.60;52.20;;;;;;5068991;28;19963;-83
2022/06/18 00:59:32;;;;;;;3.05;2.05;;;19.50;52.50;;;;;;5024611;28;20067;-83
2022/06/18 01:01:59;;;;;;;3.10;2.17;;;19.50;51.70;;;;;;5035794;28;20405;-81
2022/06/18 01:04:26;;;;;;;3.95;2.08;;;19.40;51.70;;;;;;5035062;28;20111;-81
2022/06/18 01:07:13;;;;;;;5.38;2.22;;;19.40;52.00;;;;;;5035072;28;20381;-81
2022/06/18 01:09:39;;;;;;;2.08;1.88;;;19.40;52.30;;;;;;5035544;28;20463;-82
2022/06/18 01:12:05;;;;;;;2.83;2.28;;;19.20;52.90;;;;;;5035367;28;20116;-82
2022/06/18 01:14:32;;;;;;;7.93;2.50;;;19.20;53.40;;;;;;5035284;28;20021;-82
2022/06/18 01:17:00;;;;;;;3.40;2.28;;;19.20;53.70;;;;;;5034980;28;20021;-82
2022/06/18 01:19:33;;;;;;;4.75;2.25;;;19.20;53.70;;;;;;5034630;28;20029;-82
2022/06/18 01:22:24;;;;;;;6.85;2.42;;;19.10;53.80;;;;;;5035388;28;20025;-82
2022/06/18 01:24:49;;;;;;;3.80;2.50;;;19.10;53.70;;;;;;5035011;28;20091;-82
2022/06/18 01:27:15;;;;;;;3.53;2.20;;;19.10;53.70;;;;;;5034873;28;20473;-82
2022/06/18 01:29:41;;;;;;;5.82;2.47;;;19.10;53.70;;;;;;5034880;28;20029;-82
2022/06/18 01:32:11;;;;;;;3.47;2.30;;;19.10;53.60;;;;;;5034906;28;20469;-82
2022/06/18 01:34:38;;;;;;;5.18;2.17;;;19.10;53.40;;;;;;5034924;28;20029;-82
2022/06/18 01:37:05;;;;;;;4.30;2.63;;;19.10;53.00;;;;;;5035081;28;20485;-82
2022/06/18 01:39:37;;;;;;;4.32;2.03;;;19.10;52.90;;;;;;5034803;28;20033;-82
2022/06/18 01:42:17;;;;;;;3.83;2.70;;;19.00;53.00;;;;;;5035032;28;20500;-82
2022/06/18 01:45:06;;;;;;;4.30;1.88;;;19.00;53.20;;;;;;5034667;28;20053;-82
2022/06/18 01:47:44;;;;;;;3.10;1.80;;;19.00;53.00;;;;;;5035881;28;20021;-82
2022/06/18 01:50:45;;;;;;;3.35;2.00;;;18.90;53.40;;;;;;5057290;28;20544;-83
2022/06/18 01:53:25;;;;;;;2.92;2.28;;;18.90;53.30;;;;;;5039333;28;20037;-82
2022/06/18 01:55:56;;;;;;;3.97;2.30;;;18.80;53.30;;;;;;5034930;28;20239;-82
2022/06/18 01:58:29;;;;;;;2.35;2.08;;;18.80;53.70;;;;;;5034772;28;20033;-82
2022/06/18 02:00:58;;;;;;;4.68;2.25;;;18.80;53.80;;;;;;5051271;28;20040;-82
2022/06/18 02:03:24;;;;;;;5.63;2.58;;;18.70;53.80;;;;;;5034732;28;20017;-82
2022/06/18 02:05:49;;;;;;;2.45;2.00;;;18.70;53.80;;;;;;5034995;28;20481;-83
2022/06/18 02:08:17;;;;;;;4.68;2.22;;;18.70;53.80;;;;;;5034777;28;20068;-82
2022/06/18 02:10:53;;;;;;;4.05;2.15;;;18.70;53.90;;;;;;5034712;28;20029;-83
2022/06/18 02:13:20;;;;;;;5.00;2.40;;;18.70;53.70;;;;;;5034804;28;20025;-82
2022/06/18 02:15:46;;;;;;;2.63;2.17;;;18.70;54.00;;;;;;5034565;28;20029;-82
2022/06/18 02:18:15;;;;;;;7.00;2.35;;;18.50;54.40;;;;;;5040284;28;20017;-83
2022/06/18 02:20:54;;;;;;;4.03;2.15;;;18.50;54.70;;;;;;5039008;28;20131;-82
2022/06/18 02:23:21;;;;;;;5.80;2.10;;;18.40;54.70;;;;;;5038547;28;20108;-82
2022/06/18 02:25:47;;;;;;;2.58;2.33;;;18.50;54.70;;;;;;5038161;28;20032;-82
2022/06/18 02:28:35;;;;;;;4.78;2.10;;;18.30;54.90;;;;;;5038309;28;20029;-82
2022/06/18 02:31:03;;;;;;;3.63;2.05;;;18.30;55.20;;;;;;5038451;28;20025;-82
2022/06/18 02:33:41;;;;;;;3.00;2.03;;;18.30;55.40;;;;;;5054895;28;20116;-82
2022/06/18 02:36:38;;;;;;;4.40;2.20;;;18.20;55.40;;;;;;5038256;28;20075;-82
2022/06/18 02:39:07;;;;;;;2.45;1.67;;;18.20;55.60;;;;;;5027921;28;20071;-82
2022/06/18 02:41:34;;;;;;;4.70;2.42;;;18.10;55.80;;;;;;5038583;28;20033;-82
2022/06/18 02:43:59;;;;;;;4.30;1.90;;;18.10;55.70;;;;;;5038201;28;20052;-82
2022/06/18 02:46:27;;;;;;;1.90;1.80;;;18.00;55.60;;;;;;5038391;28;20025;-82
2022/06/18 02:48:52;;;;;;;2.67;2.17;;;18.00;55.70;;;;;;5038257;28;20079;-82
2022/06/18 02:51:18;;;;;;;5.03;2.00;;;18.00;55.80;;;;;;5037944;28;20908;-82
2022/06/18 02:53:44;;;;;;;2.40;2.10;;;18.00;55.60;;;;;;5038138;28;20520;-81
2022/06/18 02:56:13;;;;;;;2.65;1.77;;;18.00;55.50;;;;;;5038065;28;20057;-82
2022/06/18 02:58:44;;;;;;;3.25;1.90;;;18.10;55.00;;;;;;5037742;28;20059;-82
2022/06/18 03:01:22;;;;;;;2.00;1.80;;;18.10;54.60;;;;;;5037779;28;20037;-82
2022/06/18 03:03:52;;;;;;;3.10;1.92;;;18.10;54.80;;;;;;5037527;28;20021;-82
2022/06/18 03:06:21;;;;;;;2.72;2.00;;;18.10;54.50;;;;;;5037819;28;20466;-82
2022/06/18 03:08:49;;;;;;;2.53;1.90;;;18.10;54.30;;;;;;5037633;28;20029;-82
2022/06/18 03:14:01;;;;;;;3.08;2.22;;;18.10;54.60;;;;;;5056128;28;20063;-82
2022/06/18 03:16:28;;;;;;;5.25;2.42;;;18.10;54.60;;;;;;5037229;28;20115;-82
2022/06/18 03:18:56;;;;;;;3.70;2.10;;;18.00;54.70;;;;;;5037543;28;20021;-82
2022/06/18 03:21:36;;;;;;;4.32;1.90;;;18.00;55.00;;;;;;5037304;28;20037;-81
2022/06/18 03:24:02;;;;;;;2.50;1.90;;;17.90;54.90;;;;;;5037344;28;20052;-81
2022/06/18 03:26:28;;;;;;;4.93;1.90;;;17.90;54.90;;;;;;5037023;28;20029;-81
2022/06/18 03:28:55;;;;;;;3.17;1.92;;;17.80;54.80;;;;;;5037056;28;20036;-82
2022/06/18 03:31:21;;;;;;;6.85;1.73;;;17.80;54.50;;;;;;5037067;28;20021;-80
2022/06/18 03:33:47;;;;;;;2.63;2.03;;;17.90;54.30;;;;;;5037422;28;20469;-81
2022/06/18 03:36:17;;;;;;;4.13;1.88;;;17.90;54.30;;;;;;5037088;28;20355;-81
2022/06/18 03:38:44;;;;;;;3.83;1.92;;;17.90;54.30;;;;;;5036542;28;20033;-81
2022/06/18 03:41:11;;;;;;;6.13;2.03;;;17.90;54.40;;;;;;5036684;28;20033;-82
2022/06/18 03:43:36;;;;;;;5.70;2.53;;;17.80;54.80;;;;;;5036870;28;20044;-81
2022/06/18 03:46:09;;;;;;;4.03;2.10;;;17.90;54.70;;;;;;5037021;28;20099;-81
2022/06/18 03:48:52;;;;;;;3.45;1.80;;;17.80;54.50;;;;;;5036856;28;20366;-82
2022/06/18 03:51:18;;;;;;;5.03;2.28;;;17.90;54.30;;;;;;5036574;28;20025;-82
2022/06/18 03:53:44;;;;;;;4.80;2.10;;;17.90;54.30;;;;;;5036566;28;20504;-82
2022/06/18 03:56:12;;;;;;;5.38;2.00;;;17.90;54.30;;;;;;5036733;28;20025;-82
2022/06/18 03:58:39;;;;;;;2.80;1.90;;;17.90;54.20;;;;;;5036251;28;20116;-82
2022/06/18 04:01:06;;;;;;;4.10;2.20;;;18.00;54.10;;;;;;5036522;28;20047;-82
2022/06/18 04:03:32;;;;;;;3.17;2.30;;;18.00;53.90;;;;;;5036437;28;20025;-81
2022/06/18 04:05:57;;;;;;;2.72;1.80;;;18.10;53.90;;;;;;5036314;28;20036;-82
2022/06/18 04:08:23;;;;;;;3.17;1.70;;;18.10;53.90;;;;;;5036110;28;20035;-81
2022/06/18 04:10:50;;;;;;;4.07;1.90;;;18.10;53.60;;;;;;5036456;28;20377;-82
2022/06/18 04:13:16;;;;;;;2.35;1.80;;;18.00;53.60;;;;;;5036320;28;20020;-82
2022/06/18 04:15:42;;;;;;;3.10;1.85;;;18.00;53.80;;;;;;5036290;28;20554;-80
2022/06/18 04:18:09;;;;;;;3.90;1.70;;;18.00;54.00;;;;;;5036050;28;20049;-81
2022/06/18 04:20:37;;;;;;;5.35;1.73;;;18.10;53.70;;;;;;5053730;28;20083;-81
2022/06/18 04:23:04;;;;;;;2.35;1.77;;;18.20;53.10;;;;;;5035978;28;20021;-82
2022/06/18 04:25:30;;;;;;;7.32;2.00;;;18.20;52.80;;;;;;5036071;28;20168;-82
2022/06/18 04:27:57;;;;;;;3.33;1.83;;;18.30;52.80;;;;;;5036045;28;20023;-82
2022/06/18 04:30:26;;;;;;;1.55;1.23;;;18.30;52.50;;;;;;5035869;28;20029;-81
2022/06/18 04:32:53;;;;;;;3.28;1.83;;;18.40;52.10;;;;;;5036138;28;20111;-81
2022/06/18 04:35:18;;;;;;;2.95;1.45;;;18.30;52.10;;;;;;5035643;28;20025;-81
2022/06/18 04:37:45;;;;;;;3.22;1.50;;;18.40;52.00;;;;;;5035830;28;20027;-82
2022/06/18 04:40:20;;;;;;;3.58;1.52;;;18.40;51.80;;;;;;5034943;28;20033;-81
2022/06/18 04:42:45;;;;;;;2.25;1.33;;;18.50;51.70;;;;;;5035649;28;20075;-80
2022/06/18 04:45:12;;;;;;;2.78;1.63;;;18.60;51.70;;;;;;5035430;28;20485;-81
2022/06/18 04:47:40;;;;;;;2.78;1.40;;;18.70;51.60;;;;;;5035404;28;20433;-81
2022/06/18 04:50:07;;;;;;;4.20;1.50;;;18.70;50.80;;;;;;5035599;28;20469;-81
2022/06/18 04:52:32;;;;;;;2.45;1.50;;;18.80;51.30;;;;;;5035281;28;20025;-82
2022/06/18 04:54:58;;;;;;;2.67;1.45;;;18.80;50.20;;;;;;5035597;28;20021;-82
2022/06/18 04:57:24;;;;;;;2.38;1.60;;;18.90;50.30;;;;;;5035307;28;20036;-82
2022/06/18 04:59:49;;;;;;;2.17;1.35;;;18.90;50.40;;;;;;5035541;28;20409;-82
2022/06/18 05:02:26;;;;;;;3.63;1.60;;;19.00;50.20;;;;;;5051518;28;20031;-81
2022/06/18 05:04:54;;;;;;;3.33;1.50;;;19.10;50.00;;;;;;5035382;28;20036;-82
2022/06/18 05:07:20;;;;;;;2.78;1.85;;;19.20;49.90;;;;;;5035242;28;20532;-81
2022/06/18 05:09:45;;;;;;;6.13;1.60;;;19.20;49.70;;;;;;5034984;28;20057;-82
2022/06/18 05:12:12;;;;;;;4.43;1.50;;;19.30;49.70;;;;;;5035134;28;20056;-82
2022/06/18 05:14:39;;;;;;;3.60;1.65;;;19.30;50.20;;;;;;5035097;28;20120;-82
2022/06/18 05:17:09;;;;;;;2.50;1.70;;;19.50;49.30;;;;;;5034840;28;20028;-82
2022/06/18 05:19:34;;;;;;;2.55;1.77;;;19.50;49.20;;;;;;5035163;28;20033;-82
2022/06/18 05:22:01;;;;;;;2.65;1.33;;;19.60;48.90;;;;;;5035080;28;20381;-82
2022/06/18 05:24:27;;;;;;;4.18;1.40;;;19.70;49.00;;;;;;5051546;28;20386;-81
2022/06/18 05:26:56;;;;;;;6.68;1.67;;;19.80;49.00;;;;;;5034914;28;20488;-82
2022/06/18 05:29:22;;;;;;;2.35;1.77;;;19.90;49.10;;;;;;5051190;28;20032;-82
2022/06/18 05:31:48;;;;;;;1.73;1.33;;;20.00;48.80;;;;;;5034990;28;20033;-82
2022/06/18 05:34:14;;;;;;;3.00;1.60;;;20.10;48.70;;;;;;5034943;28;20743;-82
2022/06/18 05:36:40;;;;;;;5.38;1.48;;;20.20;48.70;;;;;;5034894;28;20029;-82
2022/06/18 05:39:07;;;;;;;1.60;1.50;;;20.30;48.40;;;;;;5034694;28;20381;-82
2022/06/18 05:41:34;;;;;;;3.13;1.30;;;20.40;48.10;;;;;;5034631;28;20499;-82
2022/06/18 05:44:00;;;;;;;3.85;1.55;;;20.40;48.20;;;;;;5034450;28;20493;-82
2022/06/18 05:46:26;;;;;;;4.32;1.35;;;20.50;48.50;;;;;;5034755;28;20036;-83
2022/06/18 05:48:53;;;;;;;2.95;1.38;;;20.60;48.40;;;;;;5034312;28;20017;-81
2022/06/18 05:51:18;;;;;;;1.48;1.38;;;20.70;48.50;;;;;;5035457;28;20045;-82
2022/06/18 05:53:44;;;;;;;3.00;1.55;;;20.90;48.50;;;;;;5038342;28;20118;-81
2022/06/18 05:56:10;;;;;;;3.22;1.58;;;21.00;48.30;;;;;;5038082;28;20025;-82
2022/06/18 05:58:36;;;;;;;2.00;1.50;;;21.20;48.10;;;;;;5037842;28;20025;-82
2022/06/18 06:01:02;;;;;;;2.38;1.50;;;21.30;47.30;;;;;;5038303;28;20044;-82
2022/06/18 06:03:28;;;;;;;3.80;1.60;;;21.30;47.10;;;;;;5038137;28;20620;-83
2022/06/18 06:05:53;;;;;;;4.22;1.50;;;21.50;47.20;;;;;;5038119;28;20033;-82
2022/06/18 06:08:19;;;;;;;2.45;1.52;;;21.60;47.00;;;;;;5054992;28;20079;-82
2022/06/18 06:13:29;;;;;;;2.00;1.50;;;21.80;46.40;;;;;;5056084;28;20120;-82
2022/06/18 06:15:55;;;;;;;2.42;1.73;;;22.00;45.90;;;;;;5037970;28;20065;-83
2022/06/18 06:18:23;;;;;;;1.77;1.50;;;22.10;46.00;;;;;;5037862;28;20032;-81
2022/06/18 06:20:54;;;;;;;2.47;1.55;;;22.20;46.10;;;;;;5054370;28;20036;-80
2022/06/18 06:23:20;;;;;;;3.15;1.52;;;22.30;45.70;;;;;;5037422;28;20029;-82
2022/06/18 06:25:49;;;;;;;3.35;1.65;;;22.50;45.50;;;;;;5037604;28;20021;-82
2022/06/18 06:28:21;;;;;;;5.57;1.40;;;22.60;45.30;;;;;;5054674;28;20023;-82
2022/06/18 06:30:47;;;;;;;3.33;1.70;;;22.70;45.50;;;;;;5037753;28;20135;-82
2022/06/18 06:33:12;;;;;;;3.35;1.80;;;22.80;45.20;;;;;;5037333;28;20112;-81
2022/06/18 06:35:38;;;;;;;3.92;1.70;;;22.90;45.00;;;;;;5037399;28;20124;-82
2022/06/18 06:38:04;;;;;;;2.42;1.80;;;23.00;45.00;;;;;;5037471;28;20025;-82
2022/06/18 06:40:32;;;;;;;2.80;1.50;;;23.10;45.10;;;;;;5054531;28;20037;-82
2022/06/18 06:42:59;;;;;;;3.33;1.80;;;23.10;44.40;;;;;;5037852;28;20029;-83
2022/06/18 06:45:29;;;;;;;4.68;1.70;;;23.30;44.20;;;;;;5036983;28;20080;-81
2022/06/18 06:47:54;;;;;;;2.70;1.30;;;23.50;43.50;;;;;;5018000;28;20087;-82
2022/06/18 06:50:21;;;;;;;4.85;1.75;;;23.70;43.20;;;;;;5017804;28;20093;-81
2022/06/18 06:52:49;;;;;;;4.60;1.42;;;23.80;42.40;;;;;;5017939;28;20108;-83
2022/06/18 06:58:20;;;;;;;1.95;1.48;;;24.10;41.80;;;;;;5035757;28;20152;-83
2022/06/18 07:00:49;;;;;;;3.97;1.55;;;24.30;41.60;;;;;;5017299;28;20128;-82
2022/06/18 07:03:17;;;;;;;2.00;1.80;;;24.40;41.90;;;;;;5016606;28;20025;-83
2022/06/18 07:05:44;;;;;;;3.28;1.45;;;24.50;41.60;;;;;;5017532;28;20422;-83
2022/06/18 07:08:11;;;;;;;5.38;2.63;;;24.80;40.80;;;;;;5017475;28;20204;-83
2022/06/18 07:10:37;;;;;;;1.98;1.23;;;24.90;41.60;;;;;;5017305;28;20493;-81
2022/06/18 07:13:03;;;;;;;6.60;1.40;;;25.00;41.20;;;;;;5017333;28;20029;-83
2022/06/18 07:15:29;;;;;;;2.13;1.50;;;25.10;40.50;;;;;;5001235;28;20033;-83
2022/06/18 07:17:56;;;;;;;2.75;1.75;;;25.30;40.30;;;;;;5017222;28;20025;-82
2022/06/18 07:20:22;;;;;;;3.28;1.58;;;25.50;40.10;;;;;;5017287;28;20509;-83
2022/06/18 07:22:48;;;;;;;4.82;1.92;;;25.60;39.80;;;;;;5017352;28;20029;-83
2022/06/18 07:25:15;;;;;;;5.70;1.52;;;25.80;39.40;;;;;;5017184;28;20105;-83
2022/06/18 07:27:46;;;;;;;2.40;1.50;;;26.00;40.20;;;;;;5017179;28;20025;-83
2022/06/18 07:30:13;;;;;;;3.17;1.48;;;26.20;39.40;;;;;;5017185;28;20021;-80
2022/06/18 07:32:47;;;;;;;3.25;1.60;;;26.30;39.60;;;;;;5034833;28;20478;-83
2022/06/18 07:35:20;;;;;;;2.10;1.50;;;26.40;39.30;;;;;;5017069;28;20076;-82
2022/06/18 07:37:46;;;;;;;2.45;1.70;;;26.60;38.20;;;;;;5016964;28;20024;-83
2022/06/18 07:40:13;;;;;;;3.45;1.80;;;26.70;36.70;;;;;;5017872;28;20029;-83
2022/06/18 07:42:38;;;;;;;3.03;2.00;;;26.80;35.60;;;;;;5034569;28;20036;-83
2022/06/18 07:45:05;;;;;;;2.75;1.70;;;26.90;34.30;;;;;;5028968;28;20057;-82
2022/06/18 07:47:30;;;;;;;2.28;1.67;;;27.00;34.20;;;;;;5036493;28;20075;-83
2022/06/18 07:49:56;;;;;;;4.53;2.40;;;27.20;32.80;;;;;;5053057;28;20021;-84
2022/06/18 07:52:22;;;;;;;1.73;1.50;;;27.30;32.50;;;;;;5036360;28;20024;-83
2022/06/18 07:54:47;;;;;;;3.42;1.65;;;27.40;31.10;;;;;;5036666;28;20028;-83
2022/06/18 07:57:13;;;;;;;2.47;1.50;;;27.50;31.40;;;;;;5036163;28;20021;-83
2022/06/18 07:59:38;;;;;;;3.80;1.10;;;27.70;31.30;;;;;;5036125;28;20021;-83
2022/06/18 08:02:06;;;;;;;1.30;1.20;;;27.80;29.80;;;;;;5054252;28;20040;-83
2022/06/18 08:04:32;;;;;;;1.92;1.60;;;27.80;28.60;;;;;;5053008;28;20028;-84
2022/06/18 08:06:58;;;;;;;2.72;1.15;;;27.90;27.60;;;;;;5036363;28;20545;-84
2022/06/18 08:09:23;;;;;;;2.13;1.15;;;28.00;27.90;;;;;;5036327;28;20029;-82
2022/06/18 08:11:50;;;;;;;1.52;1.30;;;28.20;28.70;;;;;;5035928;28;20056;-84
2022/06/18 08:14:17;;;;;;;2.00;1.80;;;28.20;27.70;;;;;;5035902;28;20061;-83
2022/06/18 08:16:44;;;;;;;2.13;1.40;;;28.40;28.30;;;;;;5035788;28;20025;-84
2022/06/18 08:19:12;;;;;;;2.17;1.13;;;28.40;27.10;;;;;;5035730;28;20218;-82
2022/06/18 08:21:41;;;;;;;1.45;1.13;;;28.50;26.50;;;;;;5035994;28;20037;-82
2022/06/18 08:24:12;;;;;;;1.95;1.38;;;28.50;25.00;;;;;;5053923;28;20025;-82
2022/06/18 08:26:40;;;;;;;4.32;1.63;;;28.50;25.60;;;;;;5053665;28;20422;-83
2022/06/18 08:29:09;;;;;;;2.58;1.58;;;28.40;25.30;;;;;;5052764;28;20025;-83
2022/06/18 08:31:35;;;;;;;5.15;1.42;;;28.40;27.00;;;;;;5053783;28;20032;-83
2022/06/18 08:34:03;;;;;;;2.22;1.27;;;28.40;24.70;;;;;;5035920;28;20119;-83
2022/06/18 08:36:29;;;;;;;2.72;2.10;;;28.50;24.80;;;;;;5035645;28;20021;-83
2022/06/18 08:38:56;;;;;;;4.75;1.75;;;28.60;24.40;;;;;;5035398;28;20123;-84
2022/06/18 08:41:43;;;;;;;2.83;1.60;;;28.60;25.10;;;;;;5035665;28;20114;-83
2022/06/18 08:44:29;;;;;;;2.40;1.45;;;28.60;26.40;;;;;;5030638;28;20038;-83
2022/06/18 08:47:40;;;;;;;1.55;0.90;;;28.70;24.30;;;;;;5015679;28;20478;-83
2022/06/18 08:50:37;;;;;;;6.30;1.30;;;28.80;24.70;;;;;;5015653;28;20060;-84
2022/06/18 08:53:31;;;;;;;1.63;1.20;;;28.90;25.40;;;;;;5032332;28;20048;-84
2022/06/18 08:56:13;;;;;;;1.55;1.27;;;29.00;25.60;;;;;;5015494;28;20474;-84
2022/06/18 08:59:14;;;;;;;1.98;1.20;;;29.20;25.70;;;;;;5015578;28;20069;-83
2022/06/18 09:01:59;;;;;;;4.63;1.42;;;29.40;24.60;;;;;;5015496;28;20394;-83
2022/06/18 09:04:56;;;;;;;3.33;1.40;;;29.40;25.30;;;;;;5015545;28;20170;-83
2022/06/18 09:07:51;;;;;;;5.30;1.35;;;29.50;25.20;;;;;;5015541;28;20090;-82
2022/06/18 09:10:41;;;;;;;6.60;1.70;;;29.40;23.40;;;;;;5015185;28;20052;-83
2022/06/18 09:13:32;;;;;;;3.05;1.30;;;29.50;23.60;;;;;;5015309;28;20025;-81
2022/06/18 09:16:02;;;;;;;1.85;1.25;;;29.50;24.60;;;;;;5014464;28;20037;-82
2022/06/18 09:18:43;;;;;;;4.45;1.85;;;29.60;24.40;;;;;;5031609;28;20033;-83
2022/06/18 09:21:22;;;;;;;4.32;2.85;;;29.60;24.60;;;;;;5015339;28;20029;-84
2022/06/18 09:23:53;;;;;;;3.85;1.60;;;29.70;24.80;;;;;;5015316;28;20033;-80
2022/06/18 09:26:44;;;;;;;5.97;2.03;;;29.70;24.40;;;;;;5031182;28;20421;-83
2022/06/18 09:29:41;;;;;;;5.63;1.70;;;29.80;24.00;;;;;;5005949;28;20060;-83
2022/06/18 09:32:15;;;;;;;4.00;1.58;;;29.80;24.50;;;;;;5015112;28;20022;-84
2022/06/18 09:34:52;;;;;;;2.92;1.48;;;29.80;24.10;;;;;;5031341;28;20053;-82
2022/06/18 09:37:48;;;;;;;5.10;1.80;;;29.70;24.00;;;;;;5014864;28;20068;-81
2022/06/18 09:40:21;;;;;;;3.45;1.90;;;29.80;23.60;;;;;;5014693;28;20041;-80
2022/06/18 09:43:00;;;;;;;9.20;1.70;;;29.90;23.20;;;;;;5014675;28;20026;-81
2022/06/18 09:45:30;;;;;;;10.13;1.92;;;29.90;22.80;;;;;;5030147;28;20056;-81
2022/06/18 09:47:56;;;;;;;3.08;1.40;;;30.00;23.50;;;;;;5037112;28;20036;-82
2022/06/18 09:50:46;;;;;;;4.07;1.60;;;30.10;23.80;;;;;;5034293;28;20407;-81
2022/06/18 09:53:27;;;;;;;7.85;1.90;;;30.20;23.90;;;;;;5034340;28;20053;-80
2022/06/18 09:56:17;;;;;;;9.07;2.22;;;30.30;23.20;;;;;;5034104;28;20524;-82
2022/06/18 09:58:48;;;;;;;6.78;2.05;;;30.40;22.50;;;;;;5035103;28;20025;-83
2022/06/18 10:01:18;;;;;;;5.10;1.80;;;30.40;22.80;;;;;;5034289;28;20091;-82
2022/06/18 10:09:24;;;;;;;7.15;1.60;;;30.80;23.20;;;;;;5052995;28;20389;-84
2022/06/18 10:11:51;;;;;;;9.52;2.35;;;31.00;23.60;;;;;;5052423;28;20029;-83
2022/06/18 10:14:19;;;;;;;7.13;2.33;;;31.10;24.30;;;;;;5034439;28;20025;-82
2022/06/18 10:16:49;;;;;;;8.80;2.20;;;31.30;23.70;;;;;;5033770;28;20527;-84
2022/06/18 10:19:39;;;;;;;7.10;1.70;;;31.10;22.80;;;;;;5034427;28;20029;-82
2022/06/18 10:22:14;;;;;;;6.70;2.00;;;31.10;23.60;;;;;;5034032;28;20053;-82
2022/06/18 10:25:03;;;;;;;7.15;2.28;;;31.40;23.70;;;;;;5050348;28;20532;-83
2022/06/18 10:27:44;;;;;;;8.77;2.50;;;31.60;24.20;;;;;;5034171;28;20044;-80
2022/06/18 10:30:23;;;;;;;8.35;2.10;;;31.50;21.40;;;;;;5034052;28;20021;-83
2022/06/18 10:33:08;;;;;;;9.88;2.65;;;31.40;22.30;;;;;;5033950;28;20025;-84
2022/06/18 10:36:03;;;;;;;9.15;2.60;;;31.50;20.70;;;;;;5033985;28;20110;-84
2022/06/18 10:38:53;;;;;;;6.75;2.28;;;31.70;20.50;;;;;;5035595;28;20033;-83
2022/06/18 10:41:55;;;;;;;8.80;2.42;;;31.80;19.80;;;;;;5037741;28;20052;-83
2022/06/18 10:44:41;;;;;;;17.83;2.67;;;31.90;20.60;;;;;;5037326;28;20124;-84
2022/06/18 10:47:18;;;;;;;13.38;2.78;;;31.90;20.00;;;;;;5036730;28;20025;-84
2022/06/18 10:49:58;;;;;;;9.63;2.30;;;32.00;19.20;;;;;;5037935;28;20021;-84
2022/06/18 10:52:24;;;;;;;11.15;3.35;;;32.10;18.90;;;;;;5037558;28;20083;-83
2022/06/18 10:55:13;;;;;;;14.95;2.58;;;32.30;20.60;;;;;;5037804;28;20025;-84
2022/06/18 10:57:39;;;;;;;17.73;3.00;;;32.50;19.00;;;;;;5027145;28;20033;-84
2022/06/18 11:00:27;;;;;;;9.05;2.35;;;32.70;18.50;;;;;;5036995;28;20040;-81
2022/06/18 11:02:56;;;;;;;9.20;2.13;;;33.00;20.30;;;;;;5037066;28;20069;-83
2022/06/18 11:05:44;;;;;;;9.10;3.00;;;33.20;19.80;;;;;;5037051;28;20025;-82
2022/06/18 11:08:24;;;;;;;15.50;3.15;;;33.40;20.20;;;;;;5036813;28;20017;-84
2022/06/18 11:10:56;;;;;;;8.80;2.60;;;33.50;17.60;;;;;;5037303;28;20032;-83
2022/06/18 11:13:35;;;;;;;9.23;2.45;;;33.40;18.00;;;;;;5035957;28;20056;-84
2022/06/18 11:16:22;;;;;;;10.75;2.15;;;33.40;18.60;;;;;;5036912;28;20067;-79
2022/06/18 11:18:49;;;;;;;16.83;3.38;;;33.60;18.10;;;;;;5036736;28;20032;-83
2022/06/18 11:21:24;;;;;;;6.65;2.28;;;33.60;17.20;;;;;;5036686;28;20044;-83
2022/06/18 11:23:52;;;;;;;;;;;33.60;17.10;;;;;;5037456;28;20466;-83
2022/06/18 11:26:22;;;;;;;8.50;2.35;;;33.90;17.80;;;;;;5069718;28;19905;-84
2022/06/18 11:28:50;;;;;;;14.43;3.10;;;34.00;17.90;;;;;;5037067;28;20377;-83
2022/06/18 11:31:32;;;;;;;16.10;3.30;;;34.10;17.90;;;;;;5036947;28;20389;-84
2022/06/18 11:34:07;;;;;;;17.35;2.88;;;34.00;17.90;;;;;;5054744;28;20083;-84
2022/06/18 11:36:58;;;;;;;12.55;2.92;;;34.10;17.00;;;;;;5054455;28;20029;-85
2022/06/18 11:39:39;;;;;;;11.35;2.95;;;34.20;17.50;;;;;;5037011;28;20021;-84
2022/06/18 11:42:16;;;;;;;10.80;2.63;;;34.40;17.70;;;;;;5035633;28;20107;-84
2022/06/18 11:44:54;;;;;;;20.75;3.42;;;34.60;17.50;;;;;;5054491;28;20072;-84
2022/06/18 11:47:29;;;;;;;11.63;2.70;;;34.70;15.90;;;;;;5036504;28;20367;-85
2022/06/18 11:50:02;;;;;;;24.05;3.83;;;34.50;15.70;;;;;;5036283;28;20047;-84
2022/06/18 11:52:49;;;;;;;10.95;2.88;;;34.40;15.90;;;;;;5052905;28;20108;-84
2022/06/18 11:55:31;;;;;;;16.10;3.53;;;34.50;16.80;;;;;;5036609;28;20029;-84
2022/06/18 11:58:09;;;;;;;17.90;3.28;;;34.60;15.80;;;;;;5036324;28;20056;-80
2022/06/18 12:01:13;;;;;;;12.90;3.05;;;34.50;15.60;;;;;;5036962;28;20065;-83
2022/06/18 12:03:42;;;;;;;18.73;3.30;;;34.50;16.10;;;;;;5036293;28;20075;-84
2022/06/18 12:06:07;;;;;;;13.18;3.33;;;34.70;16.40;;;;;;5037159;28;20025;-84
2022/06/18 12:08:35;;;;;;;14.40;2.80;;;34.80;16.20;;;;;;5036324;28;20087;-84
2022/06/18 12:11:09;;;;;;;16.48;3.85;;;35.00;16.60;;;;;;5036227;28;20029;-84
2022/06/18 12:13:45;;;;;;;29.63;4.32;;;35.10;15.20;;;;;;5035924;28;20128;-83
2022/06/18 12:16:38;;;;;;;21.58;3.17;;;35.10;14.60;;;;;;5053585;28;20033;-82
2022/06/18 12:19:19;;;;;;;16.35;3.95;;;35.20;15.20;;;;;;5035642;28;20063;-81
2022/06/18 12:21:52;;;;;;;17.90;3.90;;;35.20;16.60;;;;;;5035572;28;20501;-81
2022/06/18 12:24:41;;;;;;;23.17;3.92;;;35.40;15.90;;;;;;5035913;28;20505;-83
2022/06/18 12:27:19;;;;;;;19.33;3.47;;;35.50;15.80;;;;;;5019731;28;20025;-82
2022/06/18 12:29:57;;;;;;;18.23;3.67;;;35.70;16.70;;;;;;5030924;28;20055;-82
2022/06/18 12:32:48;;;;;;;14.63;3.22;;;36.00;16.60;;;;;;5035231;28;20111;-82
2022/06/18 12:35:17;;;;;;;19.92;3.65;;;36.20;15.70;;;;;;5035356;28;20108;-82
2022/06/18 12:38:00;;;;;;;12.30;3.55;;;36.20;15.00;;;;;;5035220;28;20500;-83
2022/06/18 12:40:35;;;;;;;13.00;3.20;;;36.00;15.40;;;;;;5035494;28;20493;-82
2022/06/18 12:43:13;;;;;;;19.02;3.35;;;36.00;15.70;;;;;;5035752;28;20037;-81
2022/06/18 12:46:03;;;;;;;19.70;3.67;;;36.10;16.30;;;;;;5017838;28;20490;-81
2022/06/18 12:48:51;;;;;;;22.42;4.03;;;36.20;15.40;;;;;;5014659;28;20048;-82
2022/06/18 12:51:35;;;;;;;20.95;4.10;;;36.10;14.60;;;;;;5015149;28;20029;-81
2022/06/18 12:54:18;;;;;;;18.08;3.88;;;36.10;15.20;;;;;;5015270;28;20468;-81
2022/06/18 12:56:50;;;;;;;15.27;3.70;;;36.20;16.10;;;;;;5015283;28;20022;-82
2022/06/18 12:59:40;;;;;;;19.05;3.55;;;36.40;15.90;;;;;;5015241;28;20025;-83
2022/06/18 13:02:07;;;;;;;17.02;4.20;;;36.30;14.60;;;;;;5031524;28;20080;-82
2022/06/18 13:05:01;;;;;;;19.90;4.05;;;36.40;14.80;;;;;;5015268;28;20017;-83
2022/06/18 13:07:45;;;;;;;19.33;3.47;;;36.50;14.00;;;;;;5015269;28;20017;-83
2022/06/18 13:10:13;;;;;;;22.33;3.90;;;36.30;14.20;;;;;;5015403;28;20029;-82
2022/06/18 13:12:51;;;;;;;16.15;3.83;;;36.10;15.10;;;;;;5015324;28;20355;-82
2022/06/18 13:15:32;;;;;;;20.92;4.13;;;36.00;15.60;;;;;;5015291;28;20021;-82
2022/06/18 13:18:40;;;;;;;16.13;3.30;;;35.90;15.50;;;;;;5015124;28;20172;-81
2022/06/18 13:21:09;;;;;;;21.52;4.00;;;35.80;15.30;;;;;;4952905;28;20128;-82
2022/06/18 13:29:43;;;;;;;13.60;3.78;;;35.60;15.60;;;;;;5033122;28;20056;-83
2022/06/18 13:32:30;;;;;;;21.63;4.18;;;35.70;15.60;;;;;;5014866;28;20026;-82
2022/06/18 13:35:09;;;;;;;24.65;3.80;;;35.70;15.30;;;;;;5014887;28;20037;-81
2022/06/18 13:38:16;;;;;;;17.27;4.15;;;35.80;15.00;;;;;;5014851;28;20033;-81
2022/06/18 13:41:29;;;;;;;19.95;3.60;;;36.00;15.60;;;;;;5005882;28;20048;-81